createdAt,value
2022-10-11T00:02:04.972Z,12.37
2022-10-11T00:05:09.186Z,12.35
2022-10-11T00:08:12.406Z,12.34
2022-10-11T00:11:15.248Z,12.31
2022-10-11T00:14:17.717Z,12.25
2022-10-11T00:17:20.481Z,12.26
2022-10-11T00:20:23.162Z,12.22
2022-10-11T00:23:25.925Z,12.21
2022-10-11T00:26:28.524Z,12.18
2022-10-11T00:29:31.388Z,12.16
2022-10-11T00:32:34.818Z,12.14
2022-10-11T00:35:41.487Z,12.14
2022-10-11T00:38:44.689Z,12.11
2022-10-11T00:41:49.235Z,12.06
2022-10-11T00:44:52.320Z,12.03
2022-10-11T00:47:56.639Z,12.01
2022-10-11T00:51:01.539Z,11.98
2022-10-11T00:54:06.101Z,11.94
2022-10-11T00:57:12.699Z,11.89
2022-10-11T01:00:16.429Z,11.91
2022-10-11T01:03:20.690Z,11.80
2022-10-11T01:06:23.582Z,11.81
2022-10-11T01:09:26.414Z,11.85
2022-10-11T01:12:31.041Z,11.81
2022-10-11T01:15:46.215Z,11.80
2022-10-11T01:19:12.734Z,11.83
2022-10-11T01:22:27.573Z,11.79
2022-10-11T01:25:33.390Z,11.72
2022-10-11T01:28:42.167Z,11.73
2022-10-11T01:31:59.353Z,11.73
2022-10-11T01:35:08.597Z,11.70
2022-10-11T01:38:33.245Z,11.71
2022-10-11T01:41:39.484Z,11.70
2022-10-11T01:44:43.193Z,11.67
2022-10-11T01:47:45.991Z,11.61
2022-10-11T01:50:52.017Z,11.60
2022-10-11T01:53:54.463Z,11.57
2022-10-11T01:57:03.489Z,11.57
2022-10-11T02:00:20.865Z,11.53
2022-10-11T02:03:34.317Z,11.51
2022-10-11T02:06:56.349Z,11.48
2022-10-11T02:10:17.886Z,11.49
2022-10-11T02:13:27.962Z,11.41
2022-10-11T02:16:39.240Z,11.38
2022-10-11T02:19:45.167Z,11.37
2022-10-11T02:22:50.555Z,11.30
2022-10-11T02:25:54.286Z,11.27
2022-10-11T02:29:01.198Z,11.25
2022-10-11T02:32:04.032Z,11.26
2022-10-11T02:35:07.472Z,11.27
2022-10-11T02:38:32.332Z,11.31
2022-10-11T02:41:40.351Z,11.27
2022-10-11T02:44:53.605Z,11.32
2022-10-11T02:47:57.447Z,11.35
2022-10-11T02:51:00.087Z,11.35
2022-10-11T02:54:02.932Z,11.33
2022-10-11T02:57:05.471Z,11.28
2022-10-11T03:00:10.601Z,11.28
2022-10-11T03:03:13.312Z,11.33
2022-10-11T03:06:16.336Z,11.33
2022-10-11T03:09:19.395Z,11.35
2022-10-11T03:12:22.170Z,11.35
2022-10-11T03:15:24.598Z,11.36
2022-10-11T03:18:28.379Z,11.36
2022-10-11T03:21:31.090Z,11.31
2022-10-11T03:24:33.895Z,11.33
2022-10-11T03:27:36.357Z,11.28
2022-10-11T03:30:39.177Z,11.23
2022-10-11T03:33:41.646Z,11.20
2022-10-11T03:36:44.411Z,11.20
2022-10-11T03:39:46.972Z,11.20
2022-10-11T03:42:49.772Z,11.23
2022-10-11T03:45:52.267Z,11.28
2022-10-11T03:48:55.088Z,11.24
2022-10-11T03:51:57.719Z,11.29
2022-10-11T03:55:00.561Z,11.24
2022-10-11T03:58:03.103Z,11.33
2022-10-11T04:01:05.865Z,11.41
2022-10-11T04:04:08.826Z,11.40
2022-10-11T04:07:11.299Z,11.39
2022-10-11T04:10:14.501Z,11.30
2022-10-11T04:13:17.488Z,11.45
2022-10-11T04:16:20.280Z,11.42
2022-10-11T04:19:22.752Z,11.41
2022-10-11T04:22:25.565Z,11.36
2022-10-11T04:25:28.106Z,11.42
2022-10-11T04:28:31.332Z,11.39
2022-10-11T04:31:33.948Z,11.41
2022-10-11T04:34:36.711Z,11.40
2022-10-11T04:37:39.363Z,11.50
2022-10-11T04:40:42.184Z,11.56
2022-10-11T04:43:44.684Z,11.60
2022-10-11T04:46:47.459Z,11.61
2022-10-11T04:49:50.453Z,11.61
2022-10-11T04:52:53.248Z,11.51
2022-10-11T04:56:01.487Z,11.62
2022-10-11T04:59:04.517Z,11.62
2022-10-11T05:02:07.073Z,11.58
2022-10-11T05:05:09.998Z,11.72
2022-10-11T05:08:12.522Z,11.71
2022-10-11T05:11:16.935Z,11.68
2022-10-11T05:14:19.855Z,11.76
2022-10-11T05:17:22.615Z,11.77
2022-10-11T05:20:25.215Z,11.77
2022-10-11T05:23:29.378Z,11.78
2022-10-11T05:26:32.012Z,11.80
2022-10-11T05:29:34.770Z,11.78
2022-10-11T05:32:37.364Z,11.82
2022-10-11T05:35:40.274Z,11.87
2022-10-11T05:38:42.820Z,11.87
2022-10-11T05:41:45.756Z,11.92
2022-10-11T05:44:48.312Z,11.93
2022-10-11T05:47:51.262Z,11.96
2022-10-11T05:51:02.996Z,12.02
2022-10-11T05:54:05.791Z,12.05
2022-10-11T05:57:08.501Z,12.00
2022-10-11T06:00:11.759Z,12.07
2022-10-11T06:03:15.092Z,12.11
2022-10-11T06:06:18.375Z,12.15
2022-10-11T06:09:20.973Z,12.19
2022-10-11T06:12:23.716Z,12.14
2022-10-11T06:15:26.338Z,12.12
2022-10-11T06:18:29.250Z,12.20
2022-10-11T06:21:31.822Z,12.31
2022-10-11T06:24:34.584Z,12.35
2022-10-11T06:27:37.287Z,12.42
2022-10-11T06:30:40.083Z,12.46
2022-10-11T06:33:42.734Z,12.58
2022-10-11T06:36:45.507Z,12.65
2022-10-11T06:39:48.091Z,12.65
2022-10-11T06:42:50.841Z,12.72
2022-10-11T06:45:53.262Z,12.79
2022-10-11T06:48:56.684Z,12.94
2022-10-11T06:51:59.204Z,12.96
2022-10-11T06:55:01.928Z,13.07
2022-10-11T06:58:04.472Z,13.04
2022-10-11T07:01:10.901Z,13.05
2022-10-11T07:04:13.489Z,13.24
2022-10-11T07:07:16.265Z,13.26
2022-10-11T07:10:18.795Z,13.50
2022-10-11T07:13:21.596Z,13.58
2022-10-11T07:16:24.824Z,13.45
2022-10-11T07:19:27.748Z,13.54
2022-10-11T07:22:30.273Z,13.64
2022-10-11T07:25:33.159Z,13.75
2022-10-11T07:28:36.966Z,13.68
2022-10-11T07:31:41.845Z,13.76
2022-10-11T07:34:44.704Z,13.95
2022-10-11T07:37:47.474Z,14.01
2022-10-11T07:40:50.129Z,14.10
2022-10-11T07:43:54.538Z,14.24
2022-10-11T07:46:57.056Z,14.30
2022-10-11T07:49:59.971Z,14.53
2022-10-11T07:53:03.128Z,14.61
2022-10-11T07:56:06.734Z,14.79
2022-10-11T07:59:10.953Z,14.73
2022-10-11T08:02:13.963Z,14.81
2022-10-11T08:05:16.792Z,14.92
2022-10-11T08:08:19.537Z,15.02
2022-10-11T08:11:35.139Z,15.44
2022-10-11T08:14:37.646Z,15.43
2022-10-11T08:17:40.423Z,15.43
2022-10-11T08:20:43.064Z,15.52
2022-10-11T08:23:46.290Z,15.68
2022-10-11T08:26:48.745Z,15.89
2022-10-11T08:29:51.583Z,16.08
2022-10-11T08:32:54.119Z,16.16
2022-10-11T08:35:57.375Z,16.32
2022-10-11T08:39:00.981Z,16.41
2022-10-11T08:42:15.868Z,16.58
2022-10-11T08:45:32.000Z,16.82
2022-10-11T08:48:43.135Z,16.95
2022-10-11T08:51:48.482Z,17.25
2022-10-11T08:55:17.606Z,17.31
2022-10-11T08:58:56.263Z,17.45
2022-10-11T09:02:07.117Z,17.57
2022-10-11T09:05:14.721Z,17.70
2022-10-11T09:08:29.819Z,17.74
2022-10-11T09:11:57.442Z,17.86
2022-10-11T09:15:17.123Z,17.90
2022-10-11T09:18:36.691Z,18.03
2022-10-11T09:21:56.384Z,18.15
2022-10-11T09:25:09.707Z,18.25
2022-10-11T09:28:43.036Z,18.52
2022-10-11T09:31:52.671Z,18.80
2022-10-11T09:35:01.401Z,18.91
2022-10-11T09:38:22.177Z,19.05
2022-10-11T09:41:41.779Z,19.00
2022-10-11T09:44:51.790Z,19.22
2022-10-11T09:47:56.347Z,19.34
2022-10-11T09:51:04.004Z,19.37
2022-10-11T09:54:06.949Z,19.57
2022-10-11T09:57:23.287Z,19.71
2022-10-11T10:00:30.158Z,19.76
2022-10-11T10:03:36.951Z,19.84
2022-10-11T10:06:40.038Z,19.86
2022-10-11T10:09:42.840Z,19.92
2022-10-11T10:12:54.494Z,20.03
2022-10-11T10:16:01.251Z,20.10
2022-10-11T10:19:18.495Z,20.03
2022-10-11T10:22:22.033Z,20.21
2022-10-11T10:25:32.011Z,20.21
2022-10-11T10:28:35.840Z,20.38
2022-10-11T10:32:15.530Z,20.48
2022-10-11T10:35:30.659Z,20.44
2022-10-11T10:38:36.461Z,20.42
2022-10-11T10:41:39.291Z,20.50
2022-10-11T10:44:42.183Z,20.59
2022-10-11T10:48:13.618Z,20.68
2022-10-11T10:51:44.066Z,20.71
2022-10-11T10:54:55.792Z,20.75
2022-10-11T10:58:16.401Z,20.80
2022-10-11T11:01:27.214Z,20.92
2022-10-11T11:04:32.766Z,21.02
2022-10-11T11:07:47.376Z,20.94
2022-10-11T11:11:15.470Z,20.99
2022-10-11T11:14:49.990Z,20.96
2022-10-11T11:18:04.285Z,20.84
2022-10-11T11:21:41.537Z,20.76
2022-10-11T11:24:56.755Z,20.65
2022-10-11T11:28:27.451Z,20.67
2022-10-11T11:31:35.990Z,20.70
2022-10-11T11:34:43.940Z,20.70
2022-10-11T11:37:47.372Z,20.71
2022-10-11T11:40:55.811Z,20.77
2022-10-11T11:44:15.822Z,20.74
2022-10-11T11:47:19.122Z,20.79
2022-10-11T11:50:27.927Z,20.80
2022-10-11T11:53:50.176Z,20.77
2022-10-11T11:57:08.020Z,20.78
2022-10-11T12:00:20.516Z,20.79
2022-10-11T12:03:47.056Z,20.81
2022-10-11T12:07:17.759Z,20.81
2022-10-11T12:10:32.515Z,20.82
2022-10-11T12:13:38.343Z,20.89
2022-10-11T12:17:07.090Z,20.90
2022-10-11T12:20:24.136Z,20.88
2022-10-11T12:23:30.085Z,20.92
2022-10-11T12:26:35.613Z,20.90
2022-10-11T12:29:45.731Z,20.97
2022-10-11T12:32:50.197Z,21.01
2022-10-11T12:35:52.965Z,21.12
2022-10-11T12:39:20.537Z,21.09
2022-10-11T12:42:33.141Z,21.27
2022-10-11T12:45:35.785Z,21.35
2022-10-11T12:48:48.451Z,21.33
2022-10-11T12:51:58.037Z,21.40
2022-10-11T12:55:12.860Z,21.47
2022-10-11T12:58:21.587Z,21.47
2022-10-11T13:01:26.410Z,21.54
2022-10-11T13:04:31.701Z,21.54
2022-10-11T13:07:35.560Z,21.52
2022-10-11T13:10:45.334Z,21.53
2022-10-11T13:13:55.159Z,21.55
2022-10-11T13:17:00.301Z,21.45
2022-10-11T13:20:24.207Z,21.57
2022-10-11T13:23:36.072Z,21.55
2022-10-11T13:26:38.931Z,21.54
2022-10-11T13:29:46.480Z,21.46
2022-10-11T13:32:49.741Z,21.35
2022-10-11T13:35:52.861Z,21.19
2022-10-11T13:38:58.954Z,21.01
2022-10-11T13:42:07.248Z,20.96
2022-10-11T13:45:13.861Z,20.80
2022-10-11T13:48:16.821Z,20.71
2022-10-11T13:51:35.312Z,20.66
2022-10-11T13:54:53.183Z,20.57
2022-10-11T13:57:57.445Z,20.51
2022-10-11T14:01:16.791Z,20.44
2022-10-11T14:04:19.591Z,20.44
2022-10-11T14:07:28.547Z,20.40
2022-10-11T14:10:31.587Z,20.41
2022-10-11T14:13:52.261Z,20.42
2022-10-11T14:17:05.224Z,20.46
2022-10-11T14:20:16.020Z,20.47
2022-10-11T14:23:18.811Z,20.51
2022-10-11T14:26:22.145Z,20.50
2022-10-11T14:29:36.012Z,20.54
2022-10-11T14:32:42.235Z,20.65
2022-10-11T14:35:45.063Z,20.58
2022-10-11T14:38:47.544Z,20.45
2022-10-11T14:41:51.469Z,20.41
2022-10-11T14:44:53.999Z,20.41
2022-10-11T14:47:56.842Z,20.35
2022-10-11T14:51:01.434Z,20.36
2022-10-11T14:54:04.234Z,20.28
2022-10-11T14:57:06.737Z,20.24
2022-10-11T15:00:29.097Z,20.09
2022-10-11T15:03:31.536Z,19.98
2022-10-11T15:06:37.521Z,19.91
2022-10-11T15:09:40.088Z,19.81
2022-10-11T15:12:43.121Z,19.68
2022-10-11T15:15:45.981Z,19.61
2022-10-11T15:18:52.708Z,19.52
2022-10-11T15:21:55.289Z,19.42
2022-10-11T15:25:00.252Z,19.28
2022-10-11T15:28:02.723Z,19.18
2022-10-11T15:31:14.322Z,19.07
2022-10-11T15:34:17.189Z,18.98
2022-10-11T15:37:20.084Z,18.88
2022-10-11T15:40:25.432Z,18.77
2022-10-11T15:43:28.325Z,18.66
2022-10-11T15:46:30.824Z,18.56
2022-10-11T15:49:33.718Z,18.44
2022-10-11T15:52:36.250Z,18.33
2022-10-11T15:55:42.562Z,18.21
2022-10-11T15:58:45.409Z,18.08
2022-10-11T16:01:48.693Z,17.97
2022-10-11T16:04:53.288Z,17.88
2022-10-11T16:07:55.863Z,17.80
2022-10-11T16:10:59.731Z,17.63
2022-10-11T16:14:02.536Z,17.49
2022-10-11T16:17:05.704Z,17.37
2022-10-11T16:20:08.695Z,17.29
2022-10-11T16:23:12.048Z,17.23
2022-10-11T16:26:16.332Z,17.11
2022-10-11T16:29:19.099Z,17.04
2022-10-11T16:32:22.148Z,16.96
2022-10-11T16:35:26.966Z,16.83
2022-10-11T16:38:32.788Z,16.70
2022-10-11T16:41:35.656Z,16.60
2022-10-11T16:44:39.336Z,16.56
2022-10-11T16:47:43.404Z,16.49
2022-10-11T16:50:45.934Z,16.41
2022-10-11T16:53:48.883Z,16.31
2022-10-11T16:56:51.450Z,16.23
2022-10-11T16:59:54.760Z,16.15
2022-10-11T17:02:57.347Z,16.11
2022-10-11T17:06:00.193Z,16.04
2022-10-11T17:09:03.402Z,15.97
2022-10-11T17:12:06.915Z,15.93
2022-10-11T17:15:11.048Z,15.89
2022-10-11T17:18:14.185Z,15.81
2022-10-11T17:21:18.057Z,15.73
2022-10-11T17:24:20.927Z,15.69
2022-10-11T17:27:23.472Z,15.70
2022-10-11T17:30:26.301Z,15.66
2022-10-11T17:33:29.055Z,15.67
2022-10-11T17:36:36.271Z,15.68
2022-10-11T17:39:39.025Z,15.66
2022-10-11T17:42:41.849Z,15.59
2022-10-11T17:45:54.487Z,15.61
2022-10-11T17:48:58.708Z,15.62
2022-10-11T17:52:01.234Z,15.61
2022-10-11T17:55:04.532Z,15.61
2022-10-11T17:58:07.063Z,15.60
2022-10-11T18:01:13.541Z,15.59
2022-10-11T18:04:17.283Z,15.62
2022-10-11T18:07:19.756Z,15.60
2022-10-11T18:10:23.130Z,15.59
2022-10-11T18:13:25.678Z,15.59
2022-10-11T18:16:29.902Z,15.57
2022-10-11T18:19:32.585Z,15.61
2022-10-11T18:22:35.542Z,15.60
2022-10-11T18:25:38.447Z,15.60
2022-10-11T18:28:41.718Z,15.58
2022-10-11T18:31:44.562Z,15.56
2022-10-11T18:34:51.414Z,15.52
2022-10-11T18:38:00.027Z,15.49
2022-10-11T18:41:09.462Z,15.47
2022-10-11T18:44:14.395Z,15.36
2022-10-11T18:47:17.837Z,15.31
2022-10-11T18:50:23.679Z,15.27
2022-10-11T18:53:26.504Z,15.19
2022-10-11T18:56:30.241Z,15.12
2022-10-11T18:59:34.743Z,15.04
2022-10-11T19:02:37.373Z,14.97
2022-10-11T19:05:43.061Z,14.90
2022-10-11T19:08:54.475Z,14.85
2022-10-11T19:12:04.830Z,14.81
2022-10-11T19:15:07.915Z,14.72
2022-10-11T19:18:13.474Z,14.63
2022-10-11T19:21:17.865Z,14.58
2022-10-11T19:24:22.407Z,14.53
2022-10-11T19:27:27.390Z,14.55
2022-10-11T19:30:39.642Z,14.55
2022-10-11T19:33:48.037Z,14.45
2022-10-11T19:36:52.828Z,14.36
2022-10-11T19:39:55.501Z,14.30
2022-10-11T19:42:58.573Z,14.24
2022-10-11T19:46:09.517Z,14.14
2022-10-11T19:49:14.098Z,14.13
2022-10-11T19:52:16.712Z,14.10
2022-10-11T19:55:22.419Z,14.10
2022-10-11T19:58:27.599Z,14.07
2022-10-11T20:01:31.255Z,14.05
2022-10-11T20:04:51.722Z,14.02
2022-10-11T20:07:56.695Z,14.01
2022-10-11T20:11:04.184Z,13.99
2022-10-11T20:14:09.883Z,14.01
2022-10-11T20:17:13.246Z,13.93
2022-10-11T20:20:17.621Z,13.96
2022-10-11T20:23:25.196Z,13.96
2022-10-11T20:26:30.685Z,13.94
2022-10-11T20:29:33.439Z,13.93
2022-10-11T20:32:36.580Z,13.95
2022-10-11T20:35:39.551Z,13.92
2022-10-11T20:38:43.575Z,13.85
2022-10-11T20:41:46.453Z,13.90
2022-10-11T20:44:49.456Z,13.93
2022-10-11T20:47:53.774Z,13.97
2022-10-11T20:50:56.444Z,13.97
2022-10-11T20:54:02.353Z,13.98
2022-10-11T20:57:04.911Z,13.99
2022-10-11T21:00:08.536Z,13.96
2022-10-11T21:03:13.233Z,13.97
2022-10-11T21:06:16.259Z,13.95
2022-10-11T21:09:21.888Z,13.96
2022-10-11T21:12:24.784Z,13.97
2022-10-11T21:15:29.353Z,13.98
2022-10-11T21:18:32.472Z,13.99
2022-10-11T21:21:35.098Z,13.97
2022-10-11T21:24:38.750Z,13.90
2022-10-11T21:27:41.189Z,13.86
2022-10-11T21:30:44.057Z,13.84
2022-10-11T21:33:46.874Z,13.84
2022-10-11T21:36:49.662Z,13.78
2022-10-11T21:39:52.174Z,13.77
2022-10-11T21:42:54.957Z,13.76
2022-10-11T21:45:57.456Z,13.74
2022-10-11T21:49:03.076Z,13.70
2022-10-11T21:52:05.870Z,13.67
2022-10-11T21:55:08.787Z,13.65
2022-10-11T21:58:11.310Z,13.54
2022-10-11T22:01:14.733Z,13.55
2022-10-11T22:04:17.622Z,13.51
2022-10-11T22:07:20.163Z,13.50
2022-10-11T22:10:22.990Z,13.52
2022-10-11T22:13:26.216Z,13.52
2022-10-11T22:16:29.089Z,13.52
2022-10-11T22:19:31.999Z,13.54
2022-10-11T22:22:35.010Z,13.51
2022-10-11T22:25:38.981Z,13.47
2022-10-11T22:28:42.557Z,13.50
2022-10-11T22:31:45.061Z,13.50
2022-10-11T22:34:47.825Z,13.52
2022-10-11T22:37:50.741Z,13.53
2022-10-11T22:40:53.730Z,13.51
2022-10-11T22:43:56.482Z,13.40
2022-10-11T22:46:59.341Z,13.41
2022-10-11T22:50:02.083Z,13.40
2022-10-11T22:53:06.126Z,13.38
2022-10-11T22:56:09.356Z,13.35
2022-10-11T22:59:12.135Z,13.30
2022-10-11T23:02:14.751Z,13.29
2022-10-11T23:05:17.619Z,13.27
2022-10-11T23:08:20.234Z,13.22
2022-10-11T23:11:23.294Z,13.18
2022-10-11T23:14:28.497Z,13.09
2022-10-11T23:17:31.663Z,13.09
2022-10-11T23:20:34.305Z,13.08
2022-10-11T23:23:39.598Z,13.04
2022-10-11T23:26:42.126Z,13.00
2022-10-11T23:29:45.011Z,12.96
2022-10-11T23:32:49.577Z,12.93
2022-10-11T23:35:52.419Z,12.91
2022-10-11T23:38:57.203Z,12.85
2022-10-11T23:41:59.922Z,12.84
2022-10-11T23:45:02.368Z,12.81
2022-10-11T23:48:05.271Z,12.82
2022-10-11T23:51:08.148Z,12.78
2022-10-11T23:54:11.064Z,12.72
2022-10-11T23:57:13.581Z,12.72
